Thunder radar more information blitzortung!


Radar de pluja more information rain snow radar


Visita la nostra xarxa de llocs de meteo:

Template documentation
and downloads

And another site



No particular awareness of the weather is required.    There are no Weather-warnings

Pagina Historial Weather Underground text

Diari Resum Desembre 14, 2017 Unitats:  Mètric    Imperial   Tant
« Previous Dia
SegĂźent Dia »
Diari Setmana Mensual Anual Personalitzada
  Maxima: Minima: Media:
Temperatura: -17.8 °C -13.9 °C -11.4 °C
Punt de rosada: -17.8 °C -18.4 °C -15.4 °C
Humitat: Humidity % 56 % 62 %
Wind Speed: 0 km/h 0 km/h 19.6 km/h
RĂ fegues de vent: 0 km/h - -
Vent:- - SW
Pression baro: 0 hPa 34029.3 hPa -
Precipitacions: 0 mm    
Historical Graphs
 
 
Dades de taula per Desembre 14, 2017
Temps Temperatura Punt de rosada Pression baro Vent Wind Speed RĂ fegues de vent Humitat Rainfall Rate (Hourly)
-17.8 °C -17.8 °C 0 hPa Calm     Humidity % 0 mm
00:01 -13.9 °C -18.4 °C 34462.7 hPa WSW 6 km/h 6 km/h 56 % 0 mm
00:05 -13.3 °C -17.9 °C 34395 hPa Calm   5.1 km/h 56 % 0 mm
00:06 -13.4 °C -18 °C 34462.7 hPa West 9 km/h 9 km/h 56 % 0 mm
00:15 -13.3 °C -17.9 °C 34395 hPa NNE 2.6 km/h 7.7 km/h 56 % 0 mm
00:25 -13.3 °C -17.9 °C 34395 hPa North 7.7 km/h 10.3 km/h 56 % 0 mm
00:35 -13.2 °C -17.8 °C 34395 hPa NNW 5.1 km/h 5.1 km/h 56 % 0 mm
00:45 -13.4 °C -17.8 °C 34395 hPa North 5.1 km/h 7.7 km/h 57 % 0 mm
00:55 -13.4 °C -17.8 °C 34395 hPa NE 5.1 km/h 10.3 km/h 57 % 0 mm
01:05 -13.4 °C -17.9 °C 34395 hPa NE 2.6 km/h 10.3 km/h 57 % 0 mm
01:15 -13.4 °C -17.8 °C 34395 hPa NE 7.7 km/h 7.7 km/h 57 % 0 mm
01:25 -13.4 °C -17.9 °C 34395 hPa NE 5.1 km/h 10.3 km/h 57 % 0 mm
01:35 -13.4 °C -17.9 °C 34395 hPa NNE 7.7 km/h 10.3 km/h 57 % 0 mm
01:45 -13.6 °C -18 °C 34395 hPa North 12.9 km/h 15.6 km/h 57 % 0 mm
01:55 -13.6 °C -18 °C 34361.1 hPa NNE 2.6 km/h 12.9 km/h 57 % 0 mm
02:05 -13.6 °C -17.9 °C 34395 hPa NNE 2.6 km/h 12.9 km/h 58 % 0 mm
02:15 -13.6 °C -17.9 °C 34395 hPa East 5.1 km/h 5.1 km/h 58 % 0 mm
02:25 -13.7 °C -17.9 °C 34361.1 hPa East 2.6 km/h 10.3 km/h 58 % 0 mm
02:35 -13.7 °C -17.9 °C 34395 hPa NNE 2.6 km/h 7.7 km/h 58 % 0 mm
02:45 -13.7 °C -18 °C 34395 hPa SW 5.1 km/h 7.7 km/h 58 % 0 mm
02:55 -13.6 °C -17.8 °C 34361.1 hPa WSW 5.1 km/h 15.6 km/h 59 % 0 mm
03:05 -13.6 °C -17.7 °C 34395 hPa NNW 5.1 km/h 5.1 km/h 59 % 0 mm
03:15 -13.5 °C -17.7 °C 34395 hPa Calm   7.7 km/h 59 % 0 mm
03:25 -13.4 °C -17.6 °C 34395 hPa NNE 2.6 km/h 5.1 km/h 59 % 0 mm
03:35 -13.3 °C -17.6 °C 34395 hPa Calm   7.7 km/h 59 % 0 mm
03:45 -13.3 °C -17.4 °C 34395 hPa NNE 2.6 km/h 7.7 km/h 60 % 0 mm
03:55 -13.2 °C -17.4 °C 34395 hPa NE 7.7 km/h 7.7 km/h 59 % 0 mm
04:05 -13.1 °C -17.3 °C 34395 hPa NE 5.1 km/h 7.7 km/h 59 % 0 mm
04:15 -13.1 °C -17.1 °C 34395 hPa NE 2.6 km/h 5.1 km/h 60 % 0 mm
04:25 -12.9 °C -17.1 °C 34395 hPa ESE 5.1 km/h 10.3 km/h 60 % 0 mm
10:29 -12.8 °C -16.9 °C 34395 hPa SSE 6 km/h 6 km/h 60 % 0 mm
10:30 -12.8 °C -16.9 °C 34395 hPa SSW 6 km/h 6 km/h 60 % 0 mm
10:31 -12.8 °C -16.8 °C 34395 hPa WSW 6 km/h 6 km/h 60 % 0 mm
10:36 -12.6 °C -16.7 °C 34395 hPa North 11.9 km/h 11.9 km/h 60 % 0 mm
10:41 -12.4 °C -16.4 °C 34395 hPa WNW 15 km/h 15 km/h 61 % 0 mm
10:43 -12.4 °C -16.6 °C 34395 hPa West 6.8 km/h 6.8 km/h 60 % 0 mm
10:44 -12.4 °C -16.6 °C 34395 hPa WNW 6 km/h 6 km/h 60 % 0 mm
10:47 -12.4 °C -16.6 °C 34395 hPa ENE 6 km/h 6 km/h 60 % 0 mm
10:52 -12.4 °C -16.6 °C 34395 hPa NNE 9 km/h 9 km/h 60 % 0 mm
10:57 -12.4 °C -16.6 °C 34395 hPa East 6 km/h 6 km/h 60 % 0 mm
10:59 -12.4 °C -16.6 °C 34395 hPa ENE 10.3 km/h 10.3 km/h 60 % 0 mm
11:02 -12.4 °C -16.6 °C 34395 hPa ENE 5.1 km/h   60 % 0 mm
11:07 -12.4 °C -16.7 °C 34395 hPa NW 11.9 km/h 11.9 km/h 59 % 0 mm
11:10 -12.4 °C -16.7 °C 34395 hPa NNE 6 km/h 6.3 km/h 59 % 0 mm
11:12 -12.4 °C -16.6 °C 34395 hPa NE 9 km/h 9 km/h 59 % 0 mm
11:17 -12.3 °C -16.4 °C 34395 hPa NNE 9 km/h 9 km/h 60 % 0 mm
11:22 -12.2 °C -16.5 °C 34395 hPa ENE 6 km/h   59 % 0 mm
11:23 -12.2 °C -16.3 °C 34395 hPa ESE 11.9 km/h 11.9 km/h 60 % 0 mm
11:25 -12.1 °C -16.2 °C 34395 hPa NNE 9 km/h 9 km/h 60 % 0 mm
11:29 -11.9 °C -16 °C 34395 hPa SW 11.9 km/h 11.9 km/h 60 % 0 mm
11:34 -11.6 °C -15.6 °C 34395 hPa WSW 9 km/h 9 km/h 61 % 0 mm
11:38 -11.4 °C -15.4 °C 34395 hPa West 9.8 km/h 9.8 km/h 61 % 0 mm
11:43 -11.3 °C -15.2 °C 34395 hPa West 11.9 km/h 11.9 km/h 62 % 0 mm
11:48 -11.3 °C -15.2 °C 34395 hPa SW 23.8 km/h 23.8 km/h 62 % 0 mm
11:49 -11.3 °C -15.2 °C 34395 hPa WSW 23.8 km/h 23.8 km/h 62 % 0 mm
11:53 -11.2 °C -15.2 °C 34395 hPa West 12.7 km/h 12.7 km/h 62 % 0 mm
11:58 -11.2 °C -15.1 °C 34395 hPa WSW 20.9 km/h 20.9 km/h 62 % 0 mm
12:02 -11.2 °C -15.1 °C 34395 hPa West 20.9 km/h 20.9 km/h 62 % 0 mm
12:03 -11.2 °C -15.1 °C 34395 hPa SSW 20.9 km/h 20.9 km/h 62 % 0 mm
12:08 -11.1 °C -15.1 °C 34395 hPa WSW 20.9 km/h 20.9 km/h 62 % 0 mm
12:13 -11.1 °C -15.1 °C 34361.1 hPa SW 16.1 km/h 16.1 km/h 62 % 0 mm
12:17 -11.1 °C -15.1 °C 34361.1 hPa WSW 15 km/h 15 km/h 62 % 0 mm
12:18 -11.1 °C -15.1 °C 34361.1 hPa West 15 km/h 15 km/h 62 % 0 mm
12:23 -11.1 °C -14.9 °C 34361.1 hPa West 17.9 km/h 17.9 km/h 62 % 0 mm
12:27 -11 °C -14.9 °C 34361.1 hPa SW 20.9 km/h 20.9 km/h 62 % 0 mm
12:32 -10.9 °C -14.8 °C 34361.1 hPa WSW 20.9 km/h 20.9 km/h 62 % 0 mm
12:37 -10.8 °C -14.9 °C 34361.1 hPa WSW 35.7 km/h 35.7 km/h 61 % 0 mm
12:40 -10.8 °C -14.9 °C 34361.1 hPa West 33.6 km/h 33.6 km/h 61 % 0 mm
12:42 -10.8 °C -14.8 °C 34361.1 hPa WSW 38.8 km/h 38.8 km/h 61 % 0 mm
12:47 -10.8 °C -14.8 °C 34361.1 hPa West 20.9 km/h 20.9 km/h 61 % 0 mm
12:52 -10.7 °C -14.8 °C 34361.1 hPa West 25.4 km/h 25.4 km/h 61 % 0 mm
12:53 -10.7 °C -14.8 °C 34361.1 hPa West 23.8 km/h 23.8 km/h 61 % 0 mm
12:57 -10.7 °C -14.8 °C 34361.1 hPa WNW 20.9 km/h 20.9 km/h 61 % 0 mm
13:02 -10.7 °C -14.8 °C 34361.1 hPa West 23.8 km/h 23.8 km/h 61 % 0 mm
13:07 -10.7 °C -14.8 °C 34361.1 hPa WSW 15.3 km/h 15.3 km/h 61 % 0 mm
13:10 -10.7 °C -14.8 °C 34361.1 hPa WSW 29.8 km/h 29.8 km/h 61 % 0 mm
13:15 -10.7 °C -14.8 °C 34327.3 hPa West 34.9 km/h 34.9 km/h 61 % 0 mm
13:20 -10.7 °C -14.8 °C 34327.3 hPa West 20.9 km/h 20.9 km/h 61 % 0 mm
13:22 -10.7 °C -14.8 °C 34327.3 hPa WSW 15 km/h 15 km/h 61 % 0 mm
13:25 -10.7 °C -14.8 °C 34327.3 hPa WSW 27.2 km/h 27.2 km/h 61 % 0 mm
13:30 -10.7 °C -14.8 °C 34327.3 hPa WSW 27.2 km/h 27.2 km/h 61 % 0 mm
13:34 -10.7 °C -14.8 °C 34327.3 hPa WSW 27.2 km/h 27.2 km/h 61 % 0 mm
13:35 -10.7 °C -14.8 °C 34327.3 hPa WSW 27.2 km/h 27.2 km/h 61 % 0 mm
13:38 -10.7 °C -14.8 °C 34327.3 hPa WSW 27.2 km/h 27.2 km/h 61 % 0 mm
13:43 -10.7 °C -14.8 °C 34327.3 hPa WSW 27.2 km/h 27.2 km/h 61 % 0 mm
13:48 -10.7 °C -14.8 °C 34327.3 hPa WSW 27.2 km/h 27.2 km/h 61 % 0 mm
13:50 -10.7 °C -14.8 °C 34327.3 hPa WSW 27.2 km/h 27.2 km/h 61 % 0 mm
13:55 -10.7 °C -14.8 °C 34327.3 hPa WSW 27.2 km/h 27.2 km/h 61 % 0 mm
14:00 -10.7 °C -14.8 °C 34327.3 hPa WSW 27.2 km/h 27.2 km/h 61 % 0 mm
14:04 -10.7 °C -14.8 °C 34327.3 hPa WSW 27.2 km/h 27.2 km/h 61 % 0 mm
14:05 -10.7 °C -14.8 °C 34327.3 hPa WSW 27.2 km/h 27.2 km/h 61 % 0 mm
14:10 -10.7 °C -14.8 °C 34327.3 hPa WSW 27.2 km/h 27.2 km/h 61 % 0 mm
14:13 -10.7 °C -14.8 °C 34327.3 hPa WSW 27.2 km/h 27.2 km/h 61 % 0 mm
14:15 -10.7 °C -14.8 °C 34327.3 hPa WSW 27.2 km/h 27.2 km/h 61 % 0 mm
14:20 -10.7 °C -14.8 °C 34327.3 hPa WSW 27.2 km/h 27.2 km/h 61 % 0 mm
14:25 -10.7 °C -14.8 °C 34327.3 hPa WSW 27.2 km/h 27.2 km/h 61 % 0 mm
14:28 -10.7 °C -14.8 °C 34327.3 hPa WSW 27.2 km/h 27.2 km/h 61 % 0 mm
14:30 -10.7 °C -14.8 °C 34327.3 hPa WSW 27.2 km/h 27.2 km/h 61 % 0 mm
14:35 -10.7 °C -14.8 °C 34327.3 hPa WSW 27.2 km/h 27.2 km/h 61 % 0 mm
14:40 -10.7 °C -14.8 °C 34327.3 hPa WSW 27.2 km/h 27.2 km/h 61 % 0 mm
14:45 -10.7 °C -14.8 °C 34327.3 hPa WSW 27.2 km/h 27.2 km/h 61 % 0 mm
14:50 -10.7 °C -14.8 °C 34327.3 hPa WSW 27.2 km/h 27.2 km/h 61 % 0 mm
14:55 -10.7 °C -14.8 °C 34327.3 hPa WSW 27.2 km/h 27.2 km/h 61 % 0 mm
15:00 -10.7 °C -14.8 °C 34327.3 hPa WSW 27.2 km/h 27.2 km/h 61 % 0 mm
15:05 -10.7 °C -14.8 °C 34327.3 hPa WSW 27.2 km/h 27.2 km/h 61 % 0 mm
15:07 -10.7 °C -14.8 °C 34327.3 hPa WSW 27.2 km/h 27.2 km/h 61 % 0 mm
15:10 -10.7 °C -14.8 °C 34327.3 hPa WSW 27.2 km/h 27.2 km/h 61 % 0 mm
15:15 -10.7 °C -14.8 °C 34327.3 hPa WSW 27.2 km/h 27.2 km/h 61 % 0 mm
15:20 -10.7 °C -14.8 °C 34327.3 hPa WSW 27.2 km/h 27.2 km/h 61 % 0 mm
15:28 -10.7 °C -14.8 °C 34327.3 hPa WSW 27.2 km/h 27.2 km/h 61 % 0 mm
15:33 -10.7 °C -14.8 °C 34327.3 hPa WSW 27.2 km/h 27.2 km/h 61 % 0 mm
15:38 -10.7 °C -14.8 °C 34327.3 hPa WSW 27.2 km/h 27.2 km/h 61 % 0 mm
15:43 -10.7 °C -14.8 °C 34327.3 hPa WSW 27.2 km/h 27.2 km/h 61 % 0 mm
15:48 -10.7 °C -14.8 °C 34327.3 hPa WSW 27.2 km/h 27.2 km/h 61 % 0 mm
15:50 -10.7 °C -14.8 °C 34327.3 hPa WSW 27.2 km/h 27.2 km/h 61 % 0 mm
15:53 -10.7 °C -14.8 °C 34327.3 hPa WSW 27.2 km/h 27.2 km/h 61 % 0 mm
15:58 -10.7 °C -14.8 °C 34327.3 hPa WSW 27.2 km/h 27.2 km/h 61 % 0 mm
16:02 -10.7 °C -14.8 °C 34327.3 hPa WSW 27.2 km/h 27.2 km/h 61 % 0 mm
16:03 -10.7 °C -14.8 °C 34327.3 hPa WSW 27.2 km/h 27.2 km/h 61 % 0 mm
16:04 -10.7 °C -14.8 °C 34327.3 hPa WSW 27.2 km/h 27.2 km/h 61 % 0 mm
16:08 -10.7 °C -14.8 °C 34327.3 hPa WSW 27.2 km/h 27.2 km/h 61 % 0 mm
16:13 -10.7 °C -14.8 °C 34327.3 hPa WSW 27.2 km/h 27.2 km/h 61 % 0 mm
16:15 -10.7 °C -14.8 °C 34327.3 hPa WSW 27.2 km/h 27.2 km/h 61 % 0 mm
16:20 -10.7 °C -14.8 °C 34327.3 hPa WSW 27.2 km/h 27.2 km/h 61 % 0 mm
16:25 -10.7 °C -14.8 °C 34327.3 hPa WSW 27.2 km/h 27.2 km/h 61 % 0 mm
16:28 -10.7 °C -14.8 °C 34327.3 hPa WSW 27.2 km/h 27.2 km/h 61 % 0 mm
16:33 -10.7 °C -14.8 °C 34327.3 hPa WSW 27.2 km/h 27.2 km/h 61 % 0 mm
16:38 -10.7 °C -14.8 °C 34327.3 hPa WSW 27.2 km/h 27.2 km/h 61 % 0 mm
16:43 -10.7 °C -14.8 °C 34327.3 hPa WSW 27.2 km/h 27.2 km/h 61 % 0 mm
16:45 -10.7 °C -14.8 °C 34327.3 hPa WSW 27.2 km/h 27.2 km/h 61 % 0 mm
16:50 -10.7 °C -14.8 °C 34327.3 hPa WSW 27.2 km/h 27.2 km/h 61 % 0 mm
16:55 -10.7 °C -14.8 °C 34327.3 hPa WSW 27.2 km/h 27.2 km/h 61 % 0 mm
17:00 -10.7 °C -14.8 °C 34327.3 hPa WSW 27.2 km/h 27.2 km/h 61 % 0 mm
17:05 -10.7 °C -14.8 °C 34327.3 hPa WSW 27.2 km/h 27.2 km/h 61 % 0 mm
17:10 -10.7 °C -14.8 °C 34327.3 hPa WSW 27.2 km/h 27.2 km/h 61 % 0 mm
17:12 -10.7 °C -14.8 °C 34327.3 hPa WSW 27.2 km/h 27.2 km/h 61 % 0 mm
17:17 -10.7 °C -14.8 °C 34327.3 hPa WSW 27.2 km/h 27.2 km/h 61 % 0 mm
17:22 -10.7 °C -14.8 °C 34327.3 hPa WSW 27.2 km/h 27.2 km/h 61 % 0 mm
17:25 -10.7 °C -14.8 °C 34327.3 hPa WSW 27.2 km/h 27.2 km/h 61 % 0 mm
17:30 -10.7 °C -14.8 °C 34327.3 hPa WSW 27.2 km/h 27.2 km/h 61 % 0 mm
17:33 -10.7 °C -14.8 °C 34327.3 hPa WSW 27.2 km/h 27.2 km/h 61 % 0 mm
17:35 -10.7 °C -14.8 °C 34327.3 hPa WSW 27.2 km/h 27.2 km/h 61 % 0 mm
17:39 -10.7 °C -14.8 °C 34327.3 hPa WSW 27.2 km/h 27.2 km/h 61 % 0 mm
17:44 -10.7 °C -14.8 °C 34327.3 hPa WSW 27.2 km/h 27.2 km/h 61 % 0 mm
17:45 -10.7 °C -14.8 °C 34327.3 hPa WSW 27.2 km/h 27.2 km/h 61 % 0 mm
17:50 -10.7 °C -14.8 °C 34327.3 hPa WSW 27.2 km/h 27.2 km/h 61 % 0 mm
17:55 -10.7 °C -14.8 °C 34327.3 hPa WSW 27.2 km/h 27.2 km/h 61 % 0 mm
17:56 -10.7 °C -14.8 °C 34327.3 hPa WSW 27.2 km/h 27.2 km/h 61 % 0 mm
18:01 -10.7 °C -14.8 °C 34327.3 hPa WSW 27.2 km/h 27.2 km/h 61 % 0 mm
18:03 -10.7 °C -14.8 °C 34327.3 hPa WSW 27.2 km/h 27.2 km/h 61 % 0 mm
18:06 -10.7 °C -14.8 °C 34327.3 hPa WSW 27.2 km/h 27.2 km/h 61 % 0 mm
18:11 -10.7 °C -14.8 °C 34327.3 hPa WSW 27.2 km/h 27.2 km/h 61 % 0 mm
18:15 -12.2 °C -15.3 °C 34130.9 hPa NNE 2.6 km/h 2.6 km/h 68 % 0 mm
18:16 -10.7 °C -14.8 °C 34327.3 hPa WSW 27.2 km/h 27.2 km/h 61 % 0 mm
18:17 -10.7 °C -14.8 °C 34327.3 hPa WSW 27.2 km/h 27.2 km/h 61 % 0 mm
18:22 -10.7 °C -14.8 °C 34327.3 hPa WSW 27.2 km/h 27.2 km/h 61 % 0 mm
18:25 -10.7 °C -14.8 °C 34327.3 hPa WSW 27.2 km/h 27.2 km/h 61 % 0 mm
18:30 -10.7 °C -14.8 °C 34327.3 hPa WSW 27.2 km/h 27.2 km/h 61 % 0 mm
18:35 -10.7 °C -14.8 °C 34327.3 hPa WSW 27.2 km/h 27.2 km/h 61 % 0 mm
18:40 -10.7 °C -14.8 °C 34327.3 hPa WSW 27.2 km/h 27.2 km/h 61 % 0 mm
18:45 -10.7 °C -14.8 °C 34327.3 hPa WSW 27.2 km/h 27.2 km/h 61 % 0 mm
18:50 -10.7 °C -14.8 °C 34327.3 hPa WSW 27.2 km/h 27.2 km/h 61 % 0 mm
18:55 -10.7 °C -14.8 °C 34327.3 hPa WSW 27.2 km/h 27.2 km/h 61 % 0 mm
19:00 -10.7 °C -14.8 °C 34327.3 hPa WSW 27.2 km/h 27.2 km/h 61 % 0 mm
19:05 -10.7 °C -14.8 °C 34327.3 hPa WSW 27.2 km/h 27.2 km/h 61 % 0 mm
19:10 -10.7 °C -14.8 °C 34327.3 hPa WSW 27.2 km/h 27.2 km/h 61 % 0 mm
19:15 -10.7 °C -14.8 °C 34327.3 hPa WSW 27.2 km/h 27.2 km/h 61 % 0 mm
19:18 -10.7 °C -14.8 °C 34327.3 hPa WSW 27.2 km/h 27.2 km/h 61 % 0 mm
19:20 -10.7 °C -14.8 °C 34327.3 hPa WSW 27.2 km/h 27.2 km/h 61 % 0 mm
19:25 -10.7 °C -14.8 °C 34327.3 hPa WSW 27.2 km/h 27.2 km/h 61 % 0 mm
19:30 -10.7 °C -14.8 °C 34327.3 hPa WSW 27.2 km/h 27.2 km/h 61 % 0 mm
19:35 -10.7 °C -14.8 °C 34327.3 hPa WSW 27.2 km/h 27.2 km/h 61 % 0 mm
19:40 -10.7 °C -14.8 °C 34327.3 hPa WSW 27.2 km/h 27.2 km/h 61 % 0 mm
19:45 -10.7 °C -14.8 °C 34327.3 hPa WSW 27.2 km/h 27.2 km/h 61 % 0 mm
19:50 -10.7 °C -14.8 °C 34327.3 hPa WSW 27.2 km/h 27.2 km/h 61 % 0 mm
19:55 -10.7 °C -14.8 °C 34327.3 hPa WSW 27.2 km/h 27.2 km/h 61 % 0 mm
20:00 -10.7 °C -14.8 °C 34327.3 hPa WSW 27.2 km/h 27.2 km/h 61 % 0 mm
20:05 -10.7 °C -14.8 °C 34327.3 hPa WSW 27.2 km/h 27.2 km/h 61 % 0 mm
20:10 -10.7 °C -14.8 °C 34327.3 hPa WSW 27.2 km/h 27.2 km/h 61 % 0 mm
20:15 -10.7 °C -14.8 °C 34327.3 hPa WSW 27.2 km/h 27.2 km/h 61 % 0 mm
20:20 -10.7 °C -14.8 °C 34327.3 hPa WSW 27.2 km/h 27.2 km/h 61 % 0 mm
20:22 -10.7 °C -14.8 °C 34327.3 hPa WSW 27.2 km/h 27.2 km/h 61 % 0 mm
20:25 -10.7 °C -14.8 °C 34327.3 hPa WSW 27.2 km/h 27.2 km/h 61 % 0 mm
20:30 -10.7 °C -14.8 °C 34327.3 hPa WSW 27.2 km/h 27.2 km/h 61 % 0 mm
20:35 -10.7 °C -14.8 °C 34327.3 hPa WSW 27.2 km/h 27.2 km/h 61 % 0 mm
20:40 -10.7 °C -14.8 °C 34327.3 hPa WSW 27.2 km/h 27.2 km/h 61 % 0 mm
20:45 -10.7 °C -14.8 °C 34327.3 hPa WSW 27.2 km/h 27.2 km/h 61 % 0 mm
20:49 -10.7 °C -14.8 °C 34327.3 hPa WSW 27.2 km/h 27.2 km/h 61 % 0 mm
20:50 -10.7 °C -14.8 °C 34327.3 hPa WSW 27.2 km/h 27.2 km/h 61 % 0 mm
20:55 -10.7 °C -14.8 °C 34327.3 hPa WSW 27.2 km/h 27.2 km/h 61 % 0 mm
21:00 -10.7 °C -14.8 °C 34327.3 hPa WSW 27.2 km/h 27.2 km/h 61 % 0 mm
21:05 -10.7 °C -14.8 °C 34327.3 hPa WSW 27.2 km/h 27.2 km/h 61 % 0 mm
21:10 -10.7 °C -14.8 °C 34327.3 hPa WSW 27.2 km/h 27.2 km/h 61 % 0 mm
21:15 -10.7 °C -14.8 °C 34327.3 hPa WSW 27.2 km/h 27.2 km/h 61 % 0 mm
21:20 -10.7 °C -14.8 °C 34327.3 hPa WSW 27.2 km/h 27.2 km/h 61 % 0 mm
21:25 -10.7 °C -14.8 °C 34327.3 hPa WSW 27.2 km/h 27.2 km/h 61 % 0 mm
21:27 -10.7 °C -14.8 °C 34327.3 hPa WSW 27.2 km/h 27.2 km/h 61 % 0 mm
21:30 -10.7 °C -14.8 °C 34327.3 hPa WSW 27.2 km/h 27.2 km/h 61 % 0 mm
21:35 -10.7 °C -14.8 °C 34327.3 hPa WSW 27.2 km/h 27.2 km/h 61 % 0 mm
21:40 -10.7 °C -14.8 °C 34327.3 hPa WSW 27.2 km/h 27.2 km/h 61 % 0 mm
21:42 -10.7 °C -14.8 °C 34327.3 hPa WSW 27.2 km/h 27.2 km/h 61 % 0 mm
21:45 -12.5 °C -15.2 °C 34097 hPa Calm     72 % 0 mm
21:47 -10.7 °C -14.8 °C 34327.3 hPa WSW 27.2 km/h 27.2 km/h 61 % 0 mm
21:52 -10.7 °C -14.8 °C 34327.3 hPa WSW 27.2 km/h 27.2 km/h 61 % 0 mm
21:55 -12.6 °C -15.1 °C 34097 hPa Calm   5.1 km/h 73 % 0 mm
21:56 -10.7 °C -14.8 °C 34327.3 hPa WSW 27.2 km/h 27.2 km/h 61 % 0 mm
22:01 -10.7 °C -14.8 °C 34327.3 hPa WSW 27.2 km/h 27.2 km/h 61 % 0 mm
22:05 -12.7 °C -15.1 °C 34063.2 hPa Calm   5.1 km/h 74 % 0 mm
22:06 -10.7 °C -14.8 °C 34327.3 hPa WSW 27.2 km/h 27.2 km/h 61 % 0 mm
22:08 -10.7 °C -14.8 °C 34327.3 hPa WSW 27.2 km/h 27.2 km/h 61 % 0 mm
22:13 -10.7 °C -14.8 °C 34327.3 hPa WSW 27.2 km/h 27.2 km/h 61 % 0 mm
22:14 -10.7 °C -14.8 °C 34327.3 hPa WSW 27.2 km/h 27.2 km/h 61 % 0 mm
22:15 -12.7 °C -15.2 °C 34063.2 hPa Calm   5.1 km/h 73 % 0 mm
22:19 -10.7 °C -14.8 °C 34327.3 hPa WSW 27.2 km/h 27.2 km/h 61 % 0 mm
22:22 -10.7 °C -14.8 °C 34327.3 hPa WSW 27.2 km/h 27.2 km/h 61 % 0 mm
22:24 -10.7 °C -14.8 °C 34327.3 hPa WSW 27.2 km/h 27.2 km/h 61 % 0 mm
22:25 -12.6 °C -15.1 °C 34063.2 hPa WSW 5.1 km/h 5.1 km/h 73 % 0 mm
22:29 -10.7 °C -14.8 °C 34327.3 hPa WSW 27.2 km/h 27.2 km/h 61 % 0 mm
22:34 -10.7 °C -14.8 °C 34327.3 hPa WSW 27.2 km/h 27.2 km/h 61 % 0 mm
22:35 -12.7 °C -15.1 °C 34063.2 hPa Calm   10.3 km/h 74 % 0 mm
22:39 -10.7 °C -14.8 °C 34327.3 hPa WSW 27.2 km/h 27.2 km/h 61 % 0 mm
22:44 -10.7 °C -14.8 °C 34327.3 hPa WSW 27.2 km/h 27.2 km/h 61 % 0 mm
22:45 -12.7 °C -15 °C 34063.2 hPa NE 2.6 km/h 2.6 km/h 75 % 0 mm
22:49 -10.7 °C -14.8 °C 34327.3 hPa WSW 27.2 km/h 27.2 km/h 61 % 0 mm
22:54 -10.7 °C -14.8 °C 34327.3 hPa WSW 27.2 km/h 27.2 km/h 61 % 0 mm
22:55 -12.7 °C -15.1 °C 34029.3 hPa ENE 5.1 km/h 5.1 km/h 75 % 0 mm
22:59 -12.4 °C -15.7 °C 34164.7 hPa SW 26.9 km/h 26.9 km/h 66 % 0 mm
23:04 -12.4 °C -15.6 °C 34164.7 hPa WSW 4.2 km/h 4.2 km/h 67 % 0 mm
23:05 -12.9 °C -15.3 °C 34063.2 hPa East 2.6 km/h 5.1 km/h 75 % 0 mm
23:09 -12.3 °C -15.7 °C 34164.7 hPa WSW 7.6 km/h 7.6 km/h 66 % 0 mm
23:14 -12.1 °C -15.4 °C 34130.9 hPa WNW 11.9 km/h 11.9 km/h 67 % 0 mm
23:15 -13.1 °C -15.3 °C 34063.2 hPa East 5.1 km/h 7.7 km/h 76 % 0 mm
23:19 -11.9 °C -15.2 °C 34130.9 hPa WSW 6 km/h 6 km/h 67 % 0 mm
23:24 -11.9 °C -15.2 °C 34130.9 hPa SSW 6 km/h 6 km/h 67 % 0 mm
23:25 -13.1 °C -15.4 °C 34063.2 hPa Calm   7.7 km/h 75 % 0 mm
23:29 -11.8 °C -14.9 °C 34130.9 hPa WNW 5.6 km/h 5.6 km/h 68 % 0 mm
23:34 -11.7 °C -14.8 °C 34130.9 hPa WNW 6 km/h 6 km/h 68 % 0 mm
23:35 -13.2 °C -15.5 °C 34063.2 hPa Calm   7.7 km/h 75 % 0 mm
23:39 -11.6 °C -14.8 °C 34130.9 hPa WNW 6 km/h 6 km/h 68 % 0 mm
23:44 -11.6 °C -14.8 °C 34130.9 hPa NW 3.1 km/h 3.7 km/h 68 % 0 mm
23:45 -13.3 °C -15.5 °C 34063.2 hPa West 2.6 km/h 5.1 km/h 76 % 0 mm
23:49 -11.6 °C -14.8 °C 34130.9 hPa NNW 3.1 km/h   68 % 0 mm
23:54 -11.6 °C -14.8 °C 34130.9 hPa NNE 6 km/h 6 km/h 68 % 0 mm
23:55 -13.3 °C -15.5 °C 34029.3 hPa WSW 2.6 km/h 7.7 km/h 76 % 0 mm
23:59 -12 °C -15.2 °C 34130.9 hPa NNE 3.7 km/h 3.7 km/h 67 % 0 mm
Meteo Sesrovires
Elogis d' Weather Underground - 1.75 mb

Guio original per  Jim McMurry - jmcmurry@mwt.net Adaptat per a la plantilla per  Wim van der Kuil - Leuven-Template.eu

Trobareu la nostra informacio del temps tambe a:

Weather Underground

AWEKAS